sensor_id;sensor_type;location;lat;lon;timestamp;pressure;altitude;pressure_sealevel;temperature;humidity
77776;BME280;66965;43.328;6.668;2023-04-03T00:00:09;101172.25;;;13.51;43.81
77776;BME280;66965;43.328;6.668;2023-04-03T00:02:35;101172.78;;;13.31;45.10
77776;BME280;66965;43.328;6.668;2023-04-03T00:05:00;101172.91;;;13.27;46.60
77776;BME280;66965;43.328;6.668;2023-04-03T00:07:26;101169.84;;;13.10;46.92
77776;BME280;66965;43.328;6.668;2023-04-03T00:09:51;101170.25;;;12.93;46.63
77776;BME280;66965;43.328;6.668;2023-04-03T00:12:17;101170.78;;;13.09;46.43
77776;BME280;66965;43.328;6.668;2023-04-03T00:14:42;101174.56;;;12.95;47.26
77776;BME280;66965;43.328;6.668;2023-04-03T00:17:08;101171.13;;;12.93;46.85
77776;BME280;66965;43.328;6.668;2023-04-03T00:19:33;101167.53;;;12.96;46.06
77776;BME280;66965;43.328;6.668;2023-04-03T00:21:59;101173.47;;;13.04;45.70
77776;BME280;66965;43.328;6.668;2023-04-03T00:24:24;101169.03;;;13.06;45.39
77776;BME280;66965;43.328;6.668;2023-04-03T00:26:50;101165.41;;;13.12;45.06
77776;BME280;66965;43.328;6.668;2023-04-03T00:29:15;101164.63;;;13.06;45.23
77776;BME280;66965;43.328;6.668;2023-04-03T00:31:41;101154.97;;;13.09;45.29
77776;BME280;66965;43.328;6.668;2023-04-03T00:34:06;101157.56;;;13.10;45.33
77776;BME280;66965;43.328;6.668;2023-04-03T00:36:31;101162.16;;;13.00;45.37
77776;BME280;66965;43.328;6.668;2023-04-03T00:38:57;101160.38;;;13.01;45.47
77776;BME280;66965;43.328;6.668;2023-04-03T00:41:22;101156.75;;;13.08;45.14
77776;BME280;66965;43.328;6.668;2023-04-03T00:43:48;101160.28;;;13.05;45.74
77776;BME280;66965;43.328;6.668;2023-04-03T00:46:13;101162.59;;;12.84;46.04
77776;BME280;66965;43.328;6.668;2023-04-03T00:48:44;101171.09;;;12.95;45.62
77776;BME280;66965;43.328;6.668;2023-04-03T00:51:17;101151.59;;;13.02;45.41
77776;BME280;66965;43.328;6.668;2023-04-03T00:53:49;101160.38;;;13.01;45.35
77776;BME280;66965;43.328;6.668;2023-04-03T00:56:18;101155.38;;;12.92;45.76
77776;BME280;66965;43.328;6.668;2023-04-03T00:58:51;101152.06;;;12.84;45.55
77776;BME280;66965;43.328;6.668;2023-04-03T01:01:21;101157.06;;;12.94;45.67
77776;BME280;66965;43.328;6.668;2023-04-03T01:03:48;101158.03;;;12.90;45.72
77776;BME280;66965;43.328;6.668;2023-04-03T01:06:16;101155.31;;;12.93;45.68
77776;BME280;66965;43.328;6.668;2023-04-03T01:08:42;101164.47;;;12.79;46.33
77776;BME280;66965;43.328;6.668;2023-04-03T01:11:08;101159.25;;;12.77;46.23
77776;BME280;66965;43.328;6.668;2023-04-03T01:13:34;101149.00;;;12.67;46.89
77776;BME280;66965;43.328;6.668;2023-04-03T01:16:03;101152.44;;;12.69;46.94
77776;BME280;66965;43.328;6.668;2023-04-03T01:18:30;101158.53;;;12.71;46.96
77776;BME280;66965;43.328;6.668;2023-04-03T01:26:03;101158.78;;;12.60;47.48
77776;BME280;66965;43.328;6.668;2023-04-03T01:28:32;101160.59;;;12.58;47.30
77776;BME280;66965;43.328;6.668;2023-04-03T01:31:02;101164.44;;;12.45;47.96
77776;BME280;66965;43.328;6.668;2023-04-03T01:33:31;101154.03;;;12.39;47.53
77776;BME280;66965;43.328;6.668;2023-04-03T01:35:56;101154.91;;;12.39;48.17
77776;BME280;66965;43.328;6.668;2023-04-03T01:38:22;101158.84;;;12.59;47.27
77776;BME280;66965;43.328;6.668;2023-04-03T01:40:48;101160.34;;;12.69;47.74
77776;BME280;66965;43.328;6.668;2023-04-03T01:43:13;101161.81;;;12.79;47.44
77776;BME280;66965;43.328;6.668;2023-04-03T01:45:39;101170.09;;;12.64;46.93
77776;BME280;66965;43.328;6.668;2023-04-03T01:48:04;101162.16;;;12.67;48.18
77776;BME280;66965;43.328;6.668;2023-04-03T01:50:30;101161.13;;;12.37;48.99
77776;BME280;66965;43.328;6.668;2023-04-03T01:52:55;101162.06;;;12.34;49.10
77776;BME280;66965;43.328;6.668;2023-04-03T01:55:21;101156.13;;;12.25;49.54
77776;BME280;66965;43.328;6.668;2023-04-03T01:57:46;101155.59;;;12.47;48.83
77776;BME280;66965;43.328;6.668;2023-04-03T02:00:12;101154.09;;;12.37;49.36
77776;BME280;66965;43.328;6.668;2023-04-03T02:02:37;101148.84;;;12.37;49.41
77776;BME280;66965;43.328;6.668;2023-04-03T02:05:03;101149.53;;;12.44;50.34
77776;BME280;66965;43.328;6.668;2023-04-03T02:07:29;101152.34;;;12.36;50.39
77776;BME280;66965;43.328;6.668;2023-04-03T02:09:54;101152.22;;;12.03;49.56
77776;BME280;66965;43.328;6.668;2023-04-03T02:12:20;101146.91;;;12.06;48.88
77776;BME280;66965;43.328;6.668;2023-04-03T02:14:45;101152.16;;;12.07;49.09
77776;BME280;66965;43.328;6.668;2023-04-03T02:17:10;101149.47;;;12.09;49.15
77776;BME280;66965;43.328;6.668;2023-04-03T02:19:36;101146.03;;;12.07;49.90
77776;BME280;66965;43.328;6.668;2023-04-03T02:22:05;101137.59;;;12.31;49.50
77776;BME280;66965;43.328;6.668;2023-04-03T02:24:31;101130.63;;;12.28;49.61
77776;BME280;66965;43.328;6.668;2023-04-03T02:26:57;101131.88;;;12.51;47.44
77776;BME280;66965;43.328;6.668;2023-04-03T02:29:22;101127.16;;;12.63;48.27
77776;BME280;66965;43.328;6.668;2023-04-03T02:31:48;101126.47;;;12.55;48.82
77776;BME280;66965;43.328;6.668;2023-04-03T02:34:14;101126.53;;;12.54;50.02
77776;BME280;66965;43.328;6.668;2023-04-03T02:36:40;101124.94;;;12.46;50.37
77776;BME280;66965;43.328;6.668;2023-04-03T02:39:05;101123.19;;;12.47;48.59
77776;BME280;66965;43.328;6.668;2023-04-03T02:41:31;101119.47;;;12.56;47.48
77776;BME280;66965;43.328;6.668;2023-04-03T02:44:04;101129.84;;;12.62;47.58
77776;BME280;66965;43.328;6.668;2023-04-03T02:46:30;101120.19;;;12.62;47.08
77776;BME280;66965;43.328;6.668;2023-04-03T02:48:55;101122.75;;;12.64;47.47
77776;BME280;66965;43.328;6.668;2023-04-03T02:51:21;101126.47;;;12.57;47.39
77776;BME280;66965;43.328;6.668;2023-04-03T02:53:48;101118.19;;;12.36;47.73
77776;BME280;66965;43.328;6.668;2023-04-03T02:56:13;101127.13;;;12.29;47.74
77776;BME280;66965;43.328;6.668;2023-04-03T02:58:39;101122.34;;;12.45;47.17
77776;BME280;66965;43.328;6.668;2023-04-03T03:01:05;101120.53;;;12.47;47.34
77776;BME280;66965;43.328;6.668;2023-04-03T03:03:31;101118.09;;;12.39;47.28
77776;BME280;66965;43.328;6.668;2023-04-03T03:06:11;101116.16;;;12.47;46.75
77776;BME280;66965;43.328;6.668;2023-04-03T03:08:37;101108.56;;;12.35;46.78
77776;BME280;66965;43.328;6.668;2023-04-03T03:11:03;101115.94;;;12.57;46.63
77776;BME280;66965;43.328;6.668;2023-04-03T03:13:29;101111.66;;;12.53;45.88
77776;BME280;66965;43.328;6.668;2023-04-03T03:15:54;101114.16;;;12.57;46.38
77776;BME280;66965;43.328;6.668;2023-04-03T03:18:20;101112.44;;;12.56;46.30
77776;BME280;66965;43.328;6.668;2023-04-03T03:20:45;101109.97;;;12.50;46.09
77776;BME280;66965;43.328;6.668;2023-04-03T03:23:11;101112.47;;;12.55;45.95
77776;BME280;66965;43.328;6.668;2023-04-03T03:25:40;101107.47;;;12.44;46.42
77776;BME280;66965;43.328;6.668;2023-04-03T03:28:06;101106.59;;;12.45;46.08
77776;BME280;66965;43.328;6.668;2023-04-03T03:30:32;101103.97;;;12.43;46.18
77776;BME280;66965;43.328;6.668;2023-04-03T03:32:57;101105.66;;;12.46;46.02
77776;BME280;66965;43.328;6.668;2023-04-03T03:35:23;101101.53;;;12.36;46.43
77776;BME280;66965;43.328;6.668;2023-04-03T03:37:48;101097.22;;;12.33;46.40
77776;BME280;66965;43.328;6.668;2023-04-03T03:40:14;101099.84;;;12.33;46.45
77776;BME280;66965;43.328;6.668;2023-04-03T03:42:39;101098.22;;;12.29;46.63
77776;BME280;66965;43.328;6.668;2023-04-03T03:45:05;101100.75;;;12.32;46.44
77776;BME280;66965;43.328;6.668;2023-04-03T03:47:31;101103.28;;;12.35;46.55
77776;BME280;66965;43.328;6.668;2023-04-03T03:49:57;101099.78;;;12.35;45.88
77776;BME280;66965;43.328;6.668;2023-04-03T03:52:22;101101.66;;;12.31;46.01
77776;BME280;66965;43.328;6.668;2023-04-03T03:54:47;101104.34;;;12.28;46.32
77776;BME280;66965;43.328;6.668;2023-04-03T03:57:13;101105.25;;;12.27;46.31
77776;BME280;66965;43.328;6.668;2023-04-03T03:59:38;101102.63;;;12.27;46.04
77776;BME280;66965;43.328;6.668;2023-04-03T04:02:07;101107.09;;;12.24;46.26
77776;BME280;66965;43.328;6.668;2023-04-03T04:04:32;101107.13;;;12.22;45.99
77776;BME280;66965;43.328;6.668;2023-04-03T04:06:58;101108.94;;;12.19;46.30
77776;BME280;66965;43.328;6.668;2023-04-03T04:09:25;101116.69;;;12.26;45.88
77776;BME280;66965;43.328;6.668;2023-04-03T04:11:51;101115.81;;;12.26;45.68
77776;BME280;66965;43.328;6.668;2023-04-03T04:14:16;101114.88;;;12.28;46.03
77776;BME280;66965;43.328;6.668;2023-04-03T04:16:42;101114.06;;;12.26;46.22
77776;BME280;66965;43.328;6.668;2023-04-03T04:19:07;101121.88;;;12.28;46.45
77776;BME280;66965;43.328;6.668;2023-04-03T04:21:32;101121.94;;;12.26;46.41
77776;BME280;66965;43.328;6.668;2023-04-03T04:23:58;101126.25;;;12.29;46.65
77776;BME280;66965;43.328;6.668;2023-04-03T04:26:23;101127.75;;;12.39;46.22
77776;BME280;66965;43.328;6.668;2023-04-03T04:28:50;101124.91;;;12.48;46.42
77776;BME280;66965;43.328;6.668;2023-04-03T04:31:15;101122.34;;;12.45;45.39
77776;BME280;66965;43.328;6.668;2023-04-03T04:33:40;101123.31;;;12.41;45.43
77776;BME280;66965;43.328;6.668;2023-04-03T04:36:06;101125.00;;;12.43;45.69
77776;BME280;66965;43.328;6.668;2023-04-03T04:38:31;101120.69;;;12.41;45.49
77776;BME280;66965;43.328;6.668;2023-04-03T04:40:57;101129.50;;;12.38;46.21
77776;BME280;66965;43.328;6.668;2023-04-03T04:43:22;101122.44;;;12.40;46.42
77776;BME280;66965;43.328;6.668;2023-04-03T04:45:48;101122.50;;;12.39;46.55
77776;BME280;66965;43.328;6.668;2023-04-03T04:48:13;101119.06;;;12.35;46.31
77776;BME280;66965;43.328;6.668;2023-04-03T04:50:39;101117.63;;;12.24;46.36
77776;BME280;66965;43.328;6.668;2023-04-03T04:53:04;101122.69;;;12.31;46.93
77776;BME280;66965;43.328;6.668;2023-04-03T04:55:30;101120.13;;;12.28;47.34
77776;BME280;66965;43.328;6.668;2023-04-03T04:57:55;101120.94;;;12.30;46.16
77776;BME280;66965;43.328;6.668;2023-04-03T05:00:21;101125.31;;;12.31;46.46
77776;BME280;66965;43.328;6.668;2023-04-03T05:02:46;101124.41;;;12.32;46.77
77776;BME280;66965;43.328;6.668;2023-04-03T05:05:12;101122.50;;;12.39;46.82
77776;BME280;66965;43.328;6.668;2023-04-03T05:07:37;101126.69;;;12.09;47.18
77776;BME280;66965;43.328;6.668;2023-04-03T05:10:03;101125.34;;;11.92;46.55
77776;BME280;66965;43.328;6.668;2023-04-03T05:12:29;101127.72;;;12.02;46.78
77776;BME280;66965;43.328;6.668;2023-04-03T05:14:54;101133.38;;;11.85;48.08
77776;BME280;66965;43.328;6.668;2023-04-03T05:17:20;101135.53;;;12.05;46.22
77776;BME280;66965;43.328;6.668;2023-04-03T05:19:45;101136.97;;;12.20;45.93
77776;BME280;66965;43.328;6.668;2023-04-03T05:22:11;101135.66;;;12.01;47.91
77776;BME280;66965;43.328;6.668;2023-04-03T05:24:36;101146.91;;;12.06;48.28
77776;BME280;66965;43.328;6.668;2023-04-03T05:27:02;101137.53;;;11.94;49.38
77776;BME280;66965;43.328;6.668;2023-04-03T05:29:27;101147.28;;;12.27;46.33
77776;BME280;66965;43.328;6.668;2023-04-03T05:31:53;101154.91;;;12.39;47.49
77776;BME280;66965;43.328;6.668;2023-04-03T05:34:18;101154.97;;;12.36;47.58
77776;BME280;66965;43.328;6.668;2023-04-03T05:36:44;101152.09;;;12.10;48.37
77776;BME280;66965;43.328;6.668;2023-04-03T05:39:10;101148.53;;;12.11;49.00
77776;BME280;66965;43.328;6.668;2023-04-03T05:41:35;101154.84;;;12.04;48.52
77776;BME280;66965;43.328;6.668;2023-04-03T05:44:01;101162.03;;;11.96;49.87
77776;BME280;66965;43.328;6.668;2023-04-03T05:46:26;101151.28;;;12.07;48.51
77776;BME280;66965;43.328;6.668;2023-04-03T05:48:52;101155.16;;;12.29;47.23
77776;BME280;66965;43.328;6.668;2023-04-03T05:51:26;101158.16;;;12.51;46.42
77776;BME280;66965;43.328;6.668;2023-04-03T05:53:59;101147.56;;;12.54;47.95
77776;BME280;66965;43.328;6.668;2023-04-03T05:56:26;101161.47;;;12.59;48.09
77776;BME280;66965;43.328;6.668;2023-04-03T05:58:51;101164.13;;;12.57;47.74
77776;BME280;66965;43.328;6.668;2023-04-03T06:01:17;101160.53;;;12.61;47.90
77776;BME280;66965;43.328;6.668;2023-04-03T06:03:42;101163.78;;;12.71;48.34
77776;BME280;66965;43.328;6.668;2023-04-03T06:06:08;101161.88;;;12.77;48.13
77776;BME280;66965;43.328;6.668;2023-04-03T06:08:35;101168.28;;;13.01;47.18
77776;BME280;66965;43.328;6.668;2023-04-03T06:11:01;101167.13;;;13.14;47.20
77776;BME280;66965;43.328;6.668;2023-04-03T06:13:27;101168.81;;;13.15;47.15
77776;BME280;66965;43.328;6.668;2023-04-03T06:15:53;101171.81;;;13.34;45.89
77776;BME280;66965;43.328;6.668;2023-04-03T06:18:19;101174.31;;;13.40;46.69
77776;BME280;66965;43.328;6.668;2023-04-03T06:20:45;101174.22;;;13.43;46.65
77776;BME280;66965;43.328;6.668;2023-04-03T06:23:10;101182.19;;;13.40;46.88
77776;BME280;66965;43.328;6.668;2023-04-03T06:25:37;101187.34;;;13.44;47.05
77776;BME280;66965;43.328;6.668;2023-04-03T06:28:02;101182.63;;;13.57;47.24
77776;BME280;66965;43.328;6.668;2023-04-03T06:30:27;101187.81;;;13.58;47.51
77776;BME280;66965;43.328;6.668;2023-04-03T06:32:53;101186.94;;;13.59;47.55
77776;BME280;66965;43.328;6.668;2023-04-03T06:35:18;101181.28;;;13.73;46.38
77776;BME280;66965;43.328;6.668;2023-04-03T06:37:44;101181.41;;;13.69;47.17
77776;BME280;66965;43.328;6.668;2023-04-03T06:40:21;101188.88;;;13.84;47.44
77776;BME280;66965;43.328;6.668;2023-04-03T06:42:47;101193.72;;;13.99;47.47
77776;BME280;66965;43.328;6.668;2023-04-03T06:45:13;101184.81;;;14.31;46.54
77776;BME280;66965;43.328;6.668;2023-04-03T06:47:38;101184.81;;;14.31;47.64
77776;BME280;66965;43.328;6.668;2023-04-03T06:50:04;101188.13;;;14.39;49.18
77776;BME280;66965;43.328;6.668;2023-04-03T06:52:30;101186.72;;;14.55;48.86
77776;BME280;66965;43.328;6.668;2023-04-03T06:54:56;101184.69;;;14.64;47.04
77776;BME280;66965;43.328;6.668;2023-04-03T06:57:24;101185.06;;;14.78;49.44
77776;BME280;66965;43.328;6.668;2023-04-03T06:59:50;101191.31;;;14.76;49.41
77776;BME280;66965;43.328;6.668;2023-04-03T07:02:16;101191.47;;;14.71;49.75
77776;BME280;66965;43.328;6.668;2023-04-03T07:04:42;101188.09;;;14.94;44.42
77776;BME280;66965;43.328;6.668;2023-04-03T07:07:07;101190.38;;;15.05;46.35
77776;BME280;66965;43.328;6.668;2023-04-03T07:09:33;101188.44;;;15.10;44.82
77776;BME280;66965;43.328;6.668;2023-04-03T07:11:59;101191.06;;;15.10;42.31
77776;BME280;66965;43.328;6.668;2023-04-03T07:14:24;101186.91;;;15.27;42.00
77776;BME280;66965;43.328;6.668;2023-04-03T07:16:50;101196.16;;;15.40;43.29
77776;BME280;66965;43.328;6.668;2023-04-03T07:19:15;101190.25;;;15.59;40.67
77776;BME280;66965;43.328;6.668;2023-04-03T07:21:42;101188.97;;;15.70;39.92
77776;BME280;66965;43.328;6.668;2023-04-03T07:24:08;101185.72;;;15.85;39.78
77776;BME280;66965;43.328;6.668;2023-04-03T07:26:34;101183.66;;;15.93;38.77
77776;BME280;66965;43.328;6.668;2023-04-03T07:29:00;101185.31;;;15.96;38.93
77776;BME280;66965;43.328;6.668;2023-04-03T07:31:25;101178.59;;;16.11;38.53
77776;BME280;66965;43.328;6.668;2023-04-03T07:33:51;101186.53;;;16.11;38.27
77776;BME280;66965;43.328;6.668;2023-04-03T07:36:19;101185.81;;;16.29;38.26
77776;BME280;66965;43.328;6.668;2023-04-03T07:38:46;101187.44;;;16.10;38.16
77776;BME280;66965;43.328;6.668;2023-04-03T07:41:15;101188.44;;;16.30;38.46
77776;BME280;66965;43.328;6.668;2023-04-03T07:43:44;101189.63;;;16.67;38.19
77776;BME280;66965;43.328;6.668;2023-04-03T07:46:10;101198.00;;;16.78;39.36
77776;BME280;66965;43.328;6.668;2023-04-03T07:48:36;101194.44;;;16.79;41.45
77776;BME280;66965;43.328;6.668;2023-04-03T07:51:03;101190.47;;;16.89;42.51
77776;BME280;66965;43.328;6.668;2023-04-03T07:53:29;101204.34;;;16.95;45.43
77776;BME280;66965;43.328;6.668;2023-04-03T07:55:56;101205.56;;;16.87;45.31
77776;BME280;66965;43.328;6.668;2023-04-03T07:58:22;101193.28;;;17.06;45.79
77776;BME280;66965;43.328;6.668;2023-04-03T08:00:48;101201.66;;;17.17;46.73
77776;BME280;66965;43.328;6.668;2023-04-03T08:03:14;101200.34;;;17.47;45.18
77776;BME280;66965;43.328;6.668;2023-04-03T08:05:43;101201.88;;;17.53;44.02
77776;BME280;66965;43.328;6.668;2023-04-03T08:08:10;101207.28;;;17.50;45.52
77776;BME280;66965;43.328;6.668;2023-04-03T08:10:36;101205.34;;;16.93;48.27
77776;BME280;66965;43.328;6.668;2023-04-03T08:13:03;101201.81;;;17.54;46.36
77776;BME280;66965;43.328;6.668;2023-04-03T08:15:29;101199.69;;;17.62;47.37
77776;BME280;66965;43.328;6.668;2023-04-03T08:17:55;101199.91;;;17.78;47.45
77776;BME280;66965;43.328;6.668;2023-04-03T08:20:20;101198.16;;;18.53;46.44
77776;BME280;66965;43.328;6.668;2023-04-03T08:22:46;101206.06;;;19.25;43.68
77776;BME280;66965;43.328;6.668;2023-04-03T08:25:11;101201.47;;;19.45;44.86
77776;BME280;66965;43.328;6.668;2023-04-03T08:27:37;101196.09;;;19.64;43.94
77776;BME280;66965;43.328;6.668;2023-04-03T08:30:03;101197.06;;;19.79;43.42
77776;BME280;66965;43.328;6.668;2023-04-03T08:32:29;101205.69;;;20.32;40.99
77776;BME280;66965;43.328;6.668;2023-04-03T08:34:55;101205.09;;;20.58;40.26
77776;BME280;66965;43.328;6.668;2023-04-03T08:37:20;101201.34;;;21.08;40.58
77776;BME280;66965;43.328;6.668;2023-04-03T08:39:46;101206.91;;;21.63;38.58
77776;BME280;66965;43.328;6.668;2023-04-03T08:50:19;101196.78;;;21.54;35.33
77776;BME280;66965;43.328;6.668;2023-04-03T08:52:55;101195.63;;;22.02;34.53
77776;BME280;66965;43.328;6.668;2023-04-03T08:58:04;101199.25;;;21.43;37.88
77776;BME280;66965;43.328;6.668;2023-04-03T09:03:13;101194.63;;;22.31;39.12
77776;BME280;66965;43.328;6.668;2023-04-03T09:06:11;101191.13;;;22.57;37.40
77776;BME280;66965;43.328;6.668;2023-04-03T09:13:56;101184.53;;;22.63;38.80
77776;BME280;66965;43.328;6.668;2023-04-03T09:22:07;101182.66;;;21.96;40.20
77776;BME280;66965;43.328;6.668;2023-04-03T09:24:36;101179.44;;;22.46;39.15
77776;BME280;66965;43.328;6.668;2023-04-03T09:27:10;101178.31;;;23.03;38.25
77776;BME280;66965;43.328;6.668;2023-04-03T09:29:39;101177.72;;;22.85;37.60
77776;BME280;66965;43.328;6.668;2023-04-03T09:32:29;101174.06;;;23.26;37.50
77776;BME280;66965;43.328;6.668;2023-04-03T09:34:58;101177.97;;;24.10;35.53
77776;BME280;66965;43.328;6.668;2023-04-03T09:37:37;101178.69;;;23.99;35.76
77776;BME280;66965;43.328;6.668;2023-04-03T09:40:04;101169.69;;;24.26;35.84
77776;BME280;66965;43.328;6.668;2023-04-03T09:42:31;101175.34;;;24.34;35.06
77776;BME280;66965;43.328;6.668;2023-04-03T09:45:25;101169.91;;;24.23;34.34
77776;BME280;66965;43.328;6.668;2023-04-03T09:53:41;101173.69;;;24.67;33.05
77776;BME280;66965;43.328;6.668;2023-04-03T09:58:42;101170.84;;;24.94;31.15
77776;BME280;66965;43.328;6.668;2023-04-03T10:04:25;101164.44;;;25.54;31.66
77776;BME280;66965;43.328;6.668;2023-04-03T10:06:56;101164.94;;;25.59;29.08
77776;BME280;66965;43.328;6.668;2023-04-03T10:09:30;101161.28;;;26.26;26.46
77776;BME280;66965;43.328;6.668;2023-04-03T10:12:12;101155.19;;;26.35;26.06
77776;BME280;66965;43.328;6.668;2023-04-03T10:15:00;101149.41;;;27.35;25.24
77776;BME280;66965;43.328;6.668;2023-04-03T10:20:27;101147.59;;;26.29;28.73
77776;BME280;66965;43.328;6.668;2023-04-03T10:28:31;101133.59;;;26.15;28.80
77776;BME280;66965;43.328;6.668;2023-04-03T10:31:07;101129.31;;;24.03;34.31
77776;BME280;66965;43.328;6.668;2023-04-03T10:33:51;101133.22;;;23.62;34.33
77776;BME280;66965;43.328;6.668;2023-04-03T10:36:21;101122.91;;;22.52;37.32
77776;BME280;66965;43.328;6.668;2023-04-03T10:38:51;101115.00;;;23.16;34.96
77776;BME280;66965;43.328;6.668;2023-04-03T10:41:29;101110.50;;;23.17;35.69
77776;BME280;66965;43.328;6.668;2023-04-03T10:44:31;101110.09;;;24.46;34.02
77776;BME280;66965;43.328;6.668;2023-04-03T10:55:37;101093.78;;;25.53;31.09
77776;BME280;66965;43.328;6.668;2023-04-03T10:58:06;101090.59;;;26.15;29.10
77776;BME280;66965;43.328;6.668;2023-04-03T11:00:48;101092.16;;;26.06;29.00
77776;BME280;66965;43.328;6.668;2023-04-03T11:03:27;101098.97;;;24.15;35.62
77776;BME280;66965;43.328;6.668;2023-04-03T11:05:54;101091.34;;;25.61;33.61
77776;BME280;66965;43.328;6.668;2023-04-03T11:08:34;101093.41;;;25.69;32.77
77776;BME280;66965;43.328;6.668;2023-04-03T11:11:05;101083.84;;;25.43;32.87
77776;BME280;66965;43.328;6.668;2023-04-03T11:13:41;101075.63;;;24.76;34.34
77776;BME280;66965;43.328;6.668;2023-04-03T11:16:14;101078.75;;;24.35;34.85
77776;BME280;66965;43.328;6.668;2023-04-03T11:18:47;101073.00;;;24.29;36.36
77776;BME280;66965;43.328;6.668;2023-04-03T11:21:20;101074.97;;;23.65;37.54
77776;BME280;66965;43.328;6.668;2023-04-03T11:23:47;101069.91;;;22.46;41.40
77776;BME280;66965;43.328;6.668;2023-04-03T11:26:15;101064.28;;;22.36;42.57
77776;BME280;66965;43.328;6.668;2023-04-03T11:28:42;101058.38;;;22.97;42.41
77776;BME280;66965;43.328;6.668;2023-04-03T11:36:39;101044.56;;;22.90;42.53
77776;BME280;66965;43.328;6.668;2023-04-03T11:39:18;101043.91;;;22.87;42.87
77776;BME280;66965;43.328;6.668;2023-04-03T11:41:45;101038.78;;;22.84;43.49
77776;BME280;66965;43.328;6.668;2023-04-03T11:44:44;101041.59;;;22.95;42.83
77776;BME280;66965;43.328;6.668;2023-04-03T11:47:11;101032.59;;;23.46;42.68
77776;BME280;66965;43.328;6.668;2023-04-03T11:52:58;101029.78;;;24.09;41.47
77776;BME280;66965;43.328;6.668;2023-04-03T12:05:53;101002.41;;;24.17;29.26
77776;BME280;66965;43.328;6.668;2023-04-03T12:13:40;100988.19;;;25.53;23.77
77776;BME280;66965;43.328;6.668;2023-04-03T12:16:18;100985.00;;;26.13;23.79
77776;BME280;66965;43.328;6.668;2023-04-03T12:26:47;100969.41;;;24.51;21.46
77776;BME280;66965;43.328;6.668;2023-04-03T12:37:05;100960.47;;;25.41;21.01
77776;BME280;66965;43.328;6.668;2023-04-03T12:45:25;100938.09;;;24.63;22.56
77776;BME280;66965;43.328;6.668;2023-04-03T12:47:53;100939.34;;;24.24;21.56
77776;BME280;66965;43.328;6.668;2023-04-03T12:50:27;100941.75;;;24.62;21.82
77776;BME280;66965;43.328;6.668;2023-04-03T12:53:06;100932.88;;;25.72;21.87
77776;BME280;66965;43.328;6.668;2023-04-03T12:55:36;100935.72;;;25.26;21.67
77776;BME280;66965;43.328;6.668;2023-04-03T13:00:42;100928.06;;;26.39;20.33
77776;BME280;66965;43.328;6.668;2023-04-03T13:03:22;100935.94;;;26.00;20.38
77776;BME280;66965;43.328;6.668;2023-04-03T13:05:50;100923.38;;;25.46;20.72
77776;BME280;66965;43.328;6.668;2023-04-03T13:08:15;100939.75;;;27.71;18.67
77776;BME280;66965;43.328;6.668;2023-04-03T13:11:01;100938.06;;;26.48;20.03
77776;BME280;66965;43.328;6.668;2023-04-03T13:13:27;100920.00;;;25.87;19.83
77776;BME280;66965;43.328;6.668;2023-04-03T13:15:53;100926.97;;;24.91;22.10
77776;BME280;66965;43.328;6.668;2023-04-03T13:18:32;100930.44;;;24.12;23.44
77776;BME280;66965;43.328;6.668;2023-04-03T13:21:28;100933.19;;;22.52;25.21
77776;BME280;66965;43.328;6.668;2023-04-03T13:23:56;100921.53;;;21.88;25.96
77776;BME280;66965;43.328;6.668;2023-04-03T13:26:26;100946.88;;;21.40;26.05
77776;BME280;66965;43.328;6.668;2023-04-03T13:28:54;100927.50;;;20.82;27.06
77776;BME280;66965;43.328;6.668;2023-04-03T13:31:29;100927.34;;;20.55;29.55
77776;BME280;66965;43.328;6.668;2023-04-03T13:34:02;100923.44;;;20.32;30.30
77776;BME280;66965;43.328;6.668;2023-04-03T13:36:34;100930.94;;;19.49;30.16
77776;BME280;66965;43.328;6.668;2023-04-03T13:41:44;100904.66;;;19.12;31.11
77776;BME280;66965;43.328;6.668;2023-04-03T13:47:18;100874.06;;;23.67;26.16
77776;BME280;66965;43.328;6.668;2023-04-03T13:50:13;100867.63;;;25.39;21.98
77776;BME280;66965;43.328;6.668;2023-04-03T13:52:49;100866.69;;;27.05;20.62
77776;BME280;66965;43.328;6.668;2023-04-03T13:55:24;100869.88;;;27.10;18.81
77776;BME280;66965;43.328;6.668;2023-04-03T13:58:03;100860.59;;;28.39;18.30
77776;BME280;66965;43.328;6.668;2023-04-03T14:00:36;100867.47;;;28.79;18.60
77776;BME280;66965;43.328;6.668;2023-04-03T14:03:12;100865.47;;;29.81;17.42
77776;BME280;66965;43.328;6.668;2023-04-03T14:05:38;100861.41;;;28.68;18.47
77776;BME280;66965;43.328;6.668;2023-04-03T14:08:04;100852.41;;;27.63;20.48
77776;BME280;66965;43.328;6.668;2023-04-03T14:10:30;100853.38;;;27.43;21.47
77776;BME280;66965;43.328;6.668;2023-04-03T14:12:55;100848.50;;;26.78;21.01
77776;BME280;66965;43.328;6.668;2023-04-03T14:15:27;100843.06;;;24.89;26.56
77776;BME280;66965;43.328;6.668;2023-04-03T14:17:54;100840.31;;;22.80;29.98
77776;BME280;66965;43.328;6.668;2023-04-03T14:20:23;100839.44;;;23.76;24.58
77776;BME280;66965;43.328;6.668;2023-04-03T14:22:50;100826.53;;;25.70;23.17
77776;BME280;66965;43.328;6.668;2023-04-03T14:25:16;100835.69;;;27.70;22.29
77776;BME280;66965;43.328;6.668;2023-04-03T14:27:46;100824.22;;;26.69;23.65
77776;BME280;66965;43.328;6.668;2023-04-03T14:30:24;100811.00;;;23.51;24.25
77776;BME280;66965;43.328;6.668;2023-04-03T14:32:50;100825.03;;;23.06;26.51
77776;BME280;66965;43.328;6.668;2023-04-03T14:35:17;100808.84;;;22.96;26.74
77776;BME280;66965;43.328;6.668;2023-04-03T14:37:44;100814.44;;;21.93;27.92
77776;BME280;66965;43.328;6.668;2023-04-03T14:40:16;100797.91;;;21.34;30.19
77776;BME280;66965;43.328;6.668;2023-04-03T14:42:41;100799.16;;;20.88;32.09
77776;BME280;66965;43.328;6.668;2023-04-03T14:45:11;100797.63;;;20.43;30.51
77776;BME280;66965;43.328;6.668;2023-04-03T14:47:42;100792.41;;;20.27;31.32